Time;durP1;ratioP1;P1;durP2;ratioP2;P2;SDS_P1;SDS_P2;PMS_P1;PMS_P2;Temp;Humidity;BMP_temperature;BMP_pressure;BME280_temperature;BME280_humidity;BME280_pressure;Samples;Min_cycle;Max_cycle;Signal;HPM_P1;HPM_P2
2021/03/09 00:01:02;;;;;;;9.57;6.68;;;;;;;;;;5054652;28;20331;-61
2021/03/09 00:03:28;;;;;;;10.38;6.55;;;;;;;;;;5073355;28;20053;-61
2021/03/09 00:05:53;;;;;;;10.93;7.15;;;;;;;;;;5075144;28;20478;-61
2021/03/09 00:08:19;;;;;;;11.60;9.23;;;;;;;;;;5075642;28;20048;-61
2021/03/09 00:10:44;;;;;;;10.38;8.30;;;;;;;;;;5074753;28;20040;-61
2021/03/09 00:13:10;;;;;;;11.73;7.75;;;;;;;;;;5072514;28;20398;-61
2021/03/09 00:15:35;;;;;;;11.18;7.43;;;;;;;;;;5073665;28;20269;-61
2021/03/09 00:18:01;;;;;;;10.73;7.45;;;;;;;;;;5071527;28;20576;-61
2021/03/09 00:20:26;;;;;;;10.80;7.13;;;;;;;;;;5073683;28;20045;-60
2021/03/09 00:22:52;;;;;;;11.32;7.85;;;;;;;;;;5075649;28;20044;-61
2021/03/09 00:25:17;;;;;;;11.20;7.60;;;;;;;;;;5076348;28;20060;-61
2021/03/09 00:27:43;;;;;;;11.20;7.88;;;;;;;;;;5074796;28;20049;-61
2021/03/09 00:30:09;;;;;;;11.85;7.97;;;;;;;;;;5071529;28;20402;-61
2021/03/09 00:32:34;;;;;;;11.23;7.28;;;;;;;;;;5074157;28;20102;-61
2021/03/09 00:35:00;;;;;;;11.93;8.02;;;;;;;;;;5082942;28;20060;-61
2021/03/09 00:37:25;;;;;;;11.73;8.15;;;;;;;;;;5074008;28;20041;-61
2021/03/09 00:39:51;;;;;;;11.85;7.68;;;;;;;;;;5074350;28;20041;-61
2021/03/09 00:42:17;;;;;;;10.75;8.10;;;;;;;;;;5072669;28;20044;-61
2021/03/09 00:44:42;;;;;;;10.85;8.30;;;;;;;;;;5075851;28;20051;-61
2021/03/09 00:47:08;;;;;;;11.80;8.27;;;;;;;;;;5074184;28;20041;-61
2021/03/09 00:49:34;;;;;;;13.00;8.35;;;;;;;;;;5071460;28;20049;-61
2021/03/09 00:51:59;;;;;;;10.88;8.48;;;;;;;;;;5073713;28;20661;-61
2021/03/09 00:54:25;;;;;;;11.05;8.45;;;;;;;;;;5072017;28;20041;-61
2021/03/09 00:56:50;;;;;;;13.15;8.20;;;;;;;;;;5070830;28;20055;-61
2021/03/09 00:59:16;;;;;;;11.93;7.65;;;;;;;;;;5073723;28;20380;-61
2021/03/09 01:01:41;;;;;;;11.48;8.57;;;;;;;;;;5074231;28;20045;-61
2021/03/09 01:04:07;;;;;;;9.52;7.63;;;;;;;;;;5075502;28;20049;-61
2021/03/09 01:06:32;;;;;;;10.48;8.38;;;;;;;;;;5072657;28;20036;-61
2021/03/09 01:08:58;;;;;;;10.82;7.57;;;;;;;;;;5072796;28;20468;-61
2021/03/09 01:11:23;;;;;;;10.00;7.53;;;;;;;;;;5071511;28;20044;-61
2021/03/09 01:13:49;;;;;;;10.45;7.82;;;;;;;;;;5074379;28;20058;-60
2021/03/09 01:16:14;;;;;;;8.55;6.28;;;;;;;;;;5073121;28;20536;-61
2021/03/09 01:18:40;;;;;;;9.13;7.25;;;;;;;;;;5074239;28;20817;-61
2021/03/09 01:21:05;;;;;;;10.30;7.40;;;;;;;;;;5072890;28;20047;-61
2021/03/09 01:23:31;;;;;;;7.85;5.47;;;;;;;;;;5073211;28;20053;-61
2021/03/09 01:25:57;;;;;;;8.65;6.22;;;;;;;;;;5074479;28;20056;-61
2021/03/09 01:28:22;;;;;;;8.75;6.15;;;;;;;;;;5073387;28;20074;-61
2021/03/09 01:30:48;;;;;;;10.13;7.72;;;;;;;;;;5073427;28;20814;-61
2021/03/09 01:33:13;;;;;;;7.70;5.70;;;;;;;;;;5073085;28;20814;-61
2021/03/09 01:35:39;;;;;;;7.28;5.38;;;;;;;;;;5073874;28;20047;-62
2021/03/09 01:38:05;;;;;;;8.82;6.45;;;;;;;;;;5073353;28;20025;-61
2021/03/09 01:40:30;;;;;;;7.18;5.72;;;;;;;;;;5073561;28;20105;-61
2021/03/09 01:42:56;;;;;;;7.32;5.35;;;;;;;;;;5071725;28;20086;-61
2021/03/09 01:45:21;;;;;;;6.53;4.93;;;;;;;;;;5072598;28;20043;-61
2021/03/09 01:47:48;;;;;;;7.53;5.80;;;;;;;;;;5074434;28;20045;-61
2021/03/09 01:50:14;;;;;;;8.68;6.22;;;;;;;;;;5073255;28;20037;-61
2021/03/09 01:52:41;;;;;;;8.93;7.13;;;;;;;;;;5070514;28;20041;-61
2021/03/09 01:55:08;;;;;;;7.80;6.47;;;;;;;;;;5073097;28;20051;-61
2021/03/09 01:57:34;;;;;;;8.57;6.53;;;;;;;;;;5072156;28;20045;-61
2021/03/09 02:00:00;;;;;;;8.18;6.80;;;;;;;;;;5041652;28;20036;-61
2021/03/09 02:02:25;;;;;;;9.55;8.23;;;;;;;;;;5041122;28;20499;-61
2021/03/09 02:04:51;;;;;;;10.02;8.57;;;;;;;;;;5065338;28;20482;-61
2021/03/09 02:07:16;;;;;;;10.52;9.13;;;;;;;;;;5072522;28;20127;-61
2021/03/09 02:09:42;;;;;;;11.23;9.93;;;;;;;;;;5073914;28;20388;-61
2021/03/09 02:12:16;;;;;;;13.68;12.18;;;;;;;;;;5071934;28;20473;-61
2021/03/09 02:15:04;;;;;;;14.27;12.77;;;;;;;;;;5074242;28;20175;-61
2021/03/09 02:17:58;;;;;;;13.68;12.27;;;;;;;;;;5071727;28;20061;-61
2021/03/09 02:21:03;;;;;;;14.05;12.55;;;;;;;;;;5072847;28;20056;-61
2021/03/09 02:23:52;;;;;;;17.80;15.90;;;;;;;;;;5077771;28;20056;-61
2021/03/09 02:26:57;;;;;;;18.85;16.88;;;;;;;;;;5077603;28;20111;-61
2021/03/09 02:29:30;;;;;;;17.67;15.77;;;;;;;;;;5061926;28;20056;-61
2021/03/09 02:31:56;;;;;;;18.08;16.17;;;;;;;;;;5075478;28;20044;-62
2021/03/09 02:34:28;;;;;;;16.05;14.35;;;;;;;;;;5073491;28;20044;-61
2021/03/09 02:36:53;;;;;;;14.40;12.52;;;;;;;;;;5078077;28;20182;-61
2021/03/09 02:39:21;;;;;;;14.57;12.68;;;;;;;;;;5057178;28;20148;-61
2021/03/09 02:41:47;;;;;;;15.27;13.52;;;;;;;;;;5051330;28;20437;-60
2021/03/09 02:44:20;;;;;;;18.25;16.23;;;;;;;;;;5072957;28;20049;-61
2021/03/09 02:46:46;;;;;;;17.83;15.93;;;;;;;;;;5075460;28;20040;-61
2021/03/09 02:49:12;;;;;;;16.60;14.88;;;;;;;;;;5073079;28;20045;-60
2021/03/09 02:51:38;;;;;;;14.57;13.02;;;;;;;;;;5077995;28;20407;-61
2021/03/09 02:54:03;;;;;;;14.40;12.82;;;;;;;;;;5072985;28;20610;-61
2021/03/09 02:56:29;;;;;;;14.85;13.25;;;;;;;;;;5072535;28;20045;-61
2021/03/09 02:58:57;;;;;;;13.20;11.60;;;;;;;;;;5073872;28;20043;-61
2021/03/09 03:01:27;;;;;;;13.02;11.63;;;;;;;;;;5074815;28;20051;-61
2021/03/09 03:03:52;;;;;;;13.65;12.23;;;;;;;;;;5067766;28;20036;-61
2021/03/09 03:06:18;;;;;;;15.75;14.05;;;;;;;;;;5057024;28;20041;-61
2021/03/09 03:08:44;;;;;;;14.48;12.80;;;;;;;;;;5076804;28;20049;-61
2021/03/09 03:11:09;;;;;;;12.63;11.10;;;;;;;;;;5056050;28;20081;-61
2021/03/09 03:13:35;;;;;;;13.20;11.77;;;;;;;;;;5084328;28;20045;-61
2021/03/09 03:16:00;;;;;;;13.93;12.40;;;;;;;;;;5056478;28;20037;-61
2021/03/09 03:18:46;;;;;;;14.98;12.57;;;;;;;;;;5073244;28;20045;-61
2021/03/09 03:21:12;;;;;;;12.98;10.63;;;;;;;;;;5072988;28;20053;-61
2021/03/09 03:23:38;;;;;;;10.75;8.45;;;;;;;;;;5056853;28;20052;-61
2021/03/09 03:26:05;;;;;;;10.73;9.10;;;;;;;;;;5074919;28;20052;-61
2021/03/09 03:28:31;;;;;;;11.27;9.32;;;;;;;;;;5058602;28;20049;-61
2021/03/09 03:30:56;;;;;;;11.98;9.90;;;;;;;;;;5056267;28;20893;-61
2021/03/09 03:33:22;;;;;;;12.20;10.48;;;;;;;;;;5072644;28;20041;-61
2021/03/09 03:35:47;;;;;;;12.63;9.98;;;;;;;;;;5083865;28;20044;-61
2021/03/09 03:38:15;;;;;;;10.90;8.95;;;;;;;;;;5074714;28;20048;-61
2021/03/09 03:40:44;;;;;;;11.77;9.93;;;;;;;;;;5073985;28;20045;-61
2021/03/09 03:43:09;;;;;;;12.57;10.18;;;;;;;;;;5072933;28;20056;-61
2021/03/09 03:45:35;;;;;;;12.77;10.73;;;;;;;;;;5076071;28;20051;-61
2021/03/09 03:48:00;;;;;;;10.80;8.95;;;;;;;;;;5074323;28;20092;-61
2021/03/09 03:50:26;;;;;;;11.13;8.93;;;;;;;;;;5056490;28;20060;-61
2021/03/09 03:53:10;;;;;;;12.25;10.15;;;;;;;;;;5075090;28;20044;-61
2021/03/09 03:56:14;;;;;;;11.48;9.40;;;;;;;;;;5060265;28;20044;-61
2021/03/09 03:58:57;;;;;;;11.38;9.82;;;;;;;;;;5063836;28;20055;-61
2021/03/09 04:01:23;;;;;;;10.98;8.70;;;;;;;;;;5072752;28;20068;-61
2021/03/09 04:03:50;;;;;;;11.05;8.98;;;;;;;;;;5067038;28;20049;-60
2021/03/09 04:06:15;;;;;;;10.95;9.70;;;;;;;;;;5056792;28;20422;-61
2021/03/09 04:08:41;;;;;;;12.15;10.38;;;;;;;;;;5056757;28;20060;-61
2021/03/09 04:11:06;;;;;;;12.02;9.82;;;;;;;;;;5072056;28;20041;-61
2021/03/09 04:13:33;;;;;;;10.73;8.73;;;;;;;;;;5060040;28;20506;-61
2021/03/09 04:15:58;;;;;;;10.98;8.93;;;;;;;;;;5072567;28;20099;-61
2021/03/09 04:18:25;;;;;;;10.52;8.35;;;;;;;;;;5073926;28;20374;-61
2021/03/09 04:20:51;;;;;;;11.30;9.15;;;;;;;;;;5084399;28;20052;-61
2021/03/09 04:23:17;;;;;;;10.90;9.32;;;;;;;;;;5055837;28;20045;-61
2021/03/09 04:25:42;;;;;;;12.13;9.98;;;;;;;;;;5056248;28;20371;-61
2021/03/09 04:28:08;;;;;;;12.77;8.60;;;;;;;;;;5072433;28;20037;-61
2021/03/09 04:30:33;;;;;;;8.02;6.20;;;;;;;;;;5074301;28;20148;-61
2021/03/09 04:33:00;;;;;;;10.20;6.28;;;;;;;;;;5071759;28;20044;-61
2021/03/09 04:35:25;;;;;;;7.95;5.65;;;;;;;;;;5071611;28;20059;-61
2021/03/09 04:37:51;;;;;;;12.40;7.97;;;;;;;;;;5076762;28;20048;-61
2021/03/09 04:40:16;;;;;;;9.27;5.57;;;;;;;;;;5042759;28;20052;-61
2021/03/09 04:42:42;;;;;;;8.55;6.05;;;;;;;;;;5072516;28;20056;-61
2021/03/09 04:45:08;;;;;;;11.52;7.80;;;;;;;;;;5045023;28;20049;-61
2021/03/09 04:47:33;;;;;;;12.15;7.60;;;;;;;;;;5059904;28;20056;-61
2021/03/09 04:49:59;;;;;;;11.68;7.65;;;;;;;;;;5077837;28;20080;-61
2021/03/09 04:52:25;;;;;;;11.63;7.53;;;;;;;;;;5070530;28;20028;-61
2021/03/09 04:54:50;;;;;;;12.10;7.53;;;;;;;;;;5073153;28;20506;-61
2021/03/09 04:57:16;;;;;;;11.18;7.05;;;;;;;;;;5054676;28;20094;-61
2021/03/09 04:59:41;;;;;;;11.18;7.07;;;;;;;;;;5081783;28;20051;-61
2021/03/09 05:02:08;;;;;;;11.52;7.10;;;;;;;;;;5075622;28;20490;-61
2021/03/09 05:04:34;;;;;;;10.38;6.82;;;;;;;;;;5060980;28;20036;-60
2021/03/09 05:06:59;;;;;;;11.30;7.10;;;;;;;;;;5073051;28;20036;-61
2021/03/09 05:09:25;;;;;;;11.07;7.20;;;;;;;;;;5074076;28;20791;-61
2021/03/09 05:11:50;;;;;;;10.75;6.65;;;;;;;;;;5072648;28;20040;-60
2021/03/09 05:14:16;;;;;;;10.25;6.28;;;;;;;;;;5074856;28;20045;-62
2021/03/09 05:16:41;;;;;;;10.75;6.60;;;;;;;;;;5073518;28;20041;-61
2021/03/09 05:19:07;;;;;;;9.80;6.35;;;;;;;;;;5072349;28;20690;-61
2021/03/09 05:21:32;;;;;;;10.95;6.93;;;;;;;;;;5072410;28;20102;-62
2021/03/09 05:23:58;;;;;;;10.13;6.40;;;;;;;;;;5071655;28;20390;-61
2021/03/09 05:26:23;;;;;;;11.52;6.95;;;;;;;;;;5072687;28;20044;-62
2021/03/09 05:28:49;;;;;;;10.77;6.57;;;;;;;;;;5072090;28;20048;-61
2021/03/09 05:31:14;;;;;;;10.10;6.30;;;;;;;;;;5073902;28;20052;-61
2021/03/09 05:33:40;;;;;;;11.10;6.10;;;;;;;;;;5074473;28;20056;-61
2021/03/09 05:36:06;;;;;;;10.95;6.57;;;;;;;;;;5073699;28;20056;-61
2021/03/09 05:38:31;;;;;;;10.25;6.28;;;;;;;;;;5070583;28;20095;-61
2021/03/09 05:40:59;;;;;;;10.88;6.85;;;;;;;;;;5072914;28;20103;-61
2021/03/09 05:43:24;;;;;;;10.30;6.82;;;;;;;;;;5073408;28;20123;-62
2021/03/09 05:45:50;;;;;;;10.82;6.72;;;;;;;;;;5072016;28;20050;-61
2021/03/09 05:48:15;;;;;;;11.20;6.95;;;;;;;;;;5071505;28;20045;-61
2021/03/09 05:50:41;;;;;;;12.50;6.80;;;;;;;;;;5072980;28;20033;-61
2021/03/09 05:53:06;;;;;;;11.75;7.20;;;;;;;;;;5071556;28;20083;-61
2021/03/09 05:55:32;;;;;;;10.70;7.03;;;;;;;;;;5075103;28;20045;-61
2021/03/09 05:57:57;;;;;;;11.63;7.15;;;;;;;;;;5071374;28;20048;-61
2021/03/09 06:00:24;;;;;;;10.82;7.05;;;;;;;;;;5070403;28;20045;-62
2021/03/09 06:02:50;;;;;;;9.95;6.43;;;;;;;;;;5074413;28;20041;-62
2021/03/09 06:05:15;;;;;;;9.82;6.28;;;;;;;;;;5072505;28;20044;-61
2021/03/09 06:07:41;;;;;;;10.55;6.80;;;;;;;;;;5073077;28;20037;-61
2021/03/09 06:10:19;;;;;;;11.45;7.25;;;;;;;;;;5072344;28;20041;-61
2021/03/09 06:12:44;;;;;;;11.48;7.28;;;;;;;;;;5072045;28;20039;-61
2021/03/09 06:15:10;;;;;;;11.50;7.30;;;;;;;;;;5071941;28;20474;-61
2021/03/09 06:17:39;;;;;;;10.90;6.47;;;;;;;;;;5072301;28;20048;-62
2021/03/09 06:20:25;;;;;;;11.10;6.97;;;;;;;;;;5060969;28;20043;-61
2021/03/09 06:22:58;;;;;;;12.57;7.82;;;;;;;;;;5088134;28;20132;-61
2021/03/09 06:25:31;;;;;;;11.75;7.10;;;;;;;;;;5070946;28;20044;-61
2021/03/09 06:28:01;;;;;;;11.88;7.45;;;;;;;;;;5072769;28;20522;-61
2021/03/09 06:30:31;;;;;;;11.80;7.30;;;;;;;;;;5069641;28;20045;-62
2021/03/09 06:32:57;;;;;;;12.00;7.57;;;;;;;;;;5071618;28;20047;-61
2021/03/09 06:35:42;;;;;;;11.65;7.30;;;;;;;;;;5068377;28;20430;-61
2021/03/09 06:38:18;;;;;;;12.18;8.02;;;;;;;;;;5069984;28;20056;-61
2021/03/09 06:40:45;;;;;;;13.60;8.70;;;;;;;;;;5071361;28;20049;-61
2021/03/09 06:43:15;;;;;;;13.52;8.80;;;;;;;;;;5069747;28;20549;-61
2021/03/09 06:45:40;;;;;;;14.40;9.10;;;;;;;;;;5039047;28;20918;-62
2021/03/09 06:48:17;;;;;;;7.38;5.15;;;;;;;;;;5069605;28;20057;-61
2021/03/09 06:50:42;;;;;;;8.15;5.10;;;;;;;;;;5058405;28;20902;-62
2021/03/09 06:53:08;;;;;;;6.82;4.93;;;;;;;;;;5069564;28;20036;-61
2021/03/09 06:55:34;;;;;;;6.40;4.72;;;;;;;;;;5071033;28;20060;-62
2021/03/09 06:58:11;;;;;;;7.57;5.18;;;;;;;;;;5071037;28;20556;-62
2021/03/09 07:00:37;;;;;;;7.13;5.15;;;;;;;;;;5071366;28;20055;-62
2021/03/09 07:03:02;;;;;;;6.78;4.60;;;;;;;;;;5070690;28;20132;-62
2021/03/09 07:05:28;;;;;;;5.85;4.65;;;;;;;;;;5070742;28;20048;-62
2021/03/09 07:07:54;;;;;;;9.18;5.05;;;;;;;;;;5055451;28;20040;-61
2021/03/09 07:10:19;;;;;;;6.50;4.53;;;;;;;;;;5070982;28;20049;-61
2021/03/09 07:12:46;;;;;;;14.95;10.18;;;;;;;;;;5083223;28;20553;-61
2021/03/09 07:15:16;;;;;;;8.60;4.90;;;;;;;;;;5072894;28;20049;-61
2021/03/09 07:17:41;;;;;;;7.15;5.22;;;;;;;;;;5065368;28;20492;-61
2021/03/09 07:20:08;;;;;;;8.82;5.35;;;;;;;;;;5074116;28;20040;-62
2021/03/09 07:22:35;;;;;;;7.18;4.78;;;;;;;;;;5073380;28;20616;-62
2021/03/09 07:25:11;;;;;;;7.32;4.80;;;;;;;;;;5072640;28;20040;-63
2021/03/09 07:27:40;;;;;;;6.82;5.03;;;;;;;;;;5073505;28;20520;-63
2021/03/09 07:30:06;;;;;;;7.18;4.88;;;;;;;;;;5075672;28;20061;-62
2021/03/09 07:32:32;;;;;;;6.55;4.65;;;;;;;;;;5072999;28;20044;-62
2021/03/09 07:34:59;;;;;;;6.32;4.70;;;;;;;;;;5074177;28;20052;-62
2021/03/09 07:37:25;;;;;;;7.80;5.10;;;;;;;;;;5038904;28;20129;-62
2021/03/09 07:39:50;;;;;;;7.18;5.15;;;;;;;;;;5083968;28;20126;-63
2021/03/09 07:42:17;;;;;;;12.75;8.55;;;;;;;;;;5038919;28;20045;-63
2021/03/09 07:44:42;;;;;;;7.28;5.10;;;;;;;;;;5073618;28;20040;-62
2021/03/09 07:47:08;;;;;;;7.13;5.38;;;;;;;;;;5059901;28;20044;-63
2021/03/09 07:49:35;;;;;;;13.50;9.00;;;;;;;;;;5073628;28;20154;-63
2021/03/09 07:52:07;;;;;;;7.47;5.28;;;;;;;;;;5056080;28;20048;-62
2021/03/09 07:54:32;;;;;;;6.68;4.70;;;;;;;;;;5073235;28;20108;-64
2021/03/09 07:57:21;;;;;;;8.07;5.35;;;;;;;;;;5072732;28;20832;-64
2021/03/09 07:59:53;;;;;;;7.68;5.32;;;;;;;;;;5074691;28;20040;-64
2021/03/09 08:02:58;;;;;;;7.65;5.22;;;;;;;;;;5072021;28;20044;-64
2021/03/09 08:05:27;;;;;;;6.85;5.15;;;;;;;;;;5072450;28;20131;-64
2021/03/09 08:07:54;;;;;;;7.03;5.35;;;;;;;;;;5072441;28;20044;-64
2021/03/09 08:10:39;;;;;;;6.88;5.10;;;;;;;;;;5073695;28;20045;-64
2021/03/09 08:13:05;;;;;;;8.63;5.07;;;;;;;;;;5074020;28;20422;-64
2021/03/09 08:15:30;;;;;;;7.40;5.10;;;;;;;;;;5073239;28;20053;-64
2021/03/09 08:17:56;;;;;;;8.70;5.43;;;;;;;;;;5072456;28;20043;-63
2021/03/09 08:20:53;;;;;;;7.80;5.35;;;;;;;;;;5069852;28;20041;-64
2021/03/09 08:23:31;;;;;;;7.32;5.30;;;;;;;;;;5081351;28;20084;-64
2021/03/09 08:25:57;;;;;;;7.90;5.32;;;;;;;;;;5072983;28;20135;-64
2021/03/09 08:28:39;;;;;;;7.25;5.28;;;;;;;;;;5072736;28;20885;-63
2021/03/09 08:31:16;;;;;;;10.20;6.10;;;;;;;;;;5082416;28;20045;-63
2021/03/09 08:33:41;;;;;;;6.10;4.80;;;;;;;;;;5073661;28;20045;-63
2021/03/09 08:36:19;;;;;;;7.68;5.15;;;;;;;;;;5074705;28;20053;-63
2021/03/09 08:41:35;;;;;;;7.50;4.97;;;;;;;;;;5073373;28;20128;-64
2021/03/09 08:44:19;;;;;;;8.13;5.03;;;;;;;;;;5071393;28;20178;-63
2021/03/09 08:47:00;;;;;;;7.65;5.28;;;;;;;;;;5072618;28;20044;-63
2021/03/09 08:49:35;;;;;;;6.50;4.80;;;;;;;;;;5071179;28;20829;-63
2021/03/09 08:52:00;;;;;;;7.10;5.03;;;;;;;;;;5073254;28;20045;-63
2021/03/09 08:54:31;;;;;;;7.60;5.32;;;;;;;;;;5071051;28;20489;-63
2021/03/09 08:56:58;;;;;;;7.38;5.00;;;;;;;;;;5072604;28;20053;-64
2021/03/09 08:59:25;;;;;;;7.18;4.80;;;;;;;;;;5073248;28;20536;-63
2021/03/09 09:01:51;;;;;;;6.50;4.75;;;;;;;;;;5082834;28;20040;-63
2021/03/09 09:04:17;;;;;;;7.75;5.35;;;;;;;;;;5071732;28;20589;-63
2021/03/09 09:06:43;;;;;;;6.65;4.72;;;;;;;;;;5061050;28;20040;-64
2021/03/09 09:09:08;;;;;;;8.05;5.22;;;;;;;;;;5072720;28;20049;-63
2021/03/09 09:11:34;;;;;;;7.00;4.95;;;;;;;;;;5073605;28;20102;-63
2021/03/09 09:14:16;;;;;;;6.53;4.88;;;;;;;;;;5072571;28;20106;-64
2021/03/09 09:16:41;;;;;;;8.15;5.50;;;;;;;;;;5070992;28;20052;-64
2021/03/09 09:19:07;;;;;;;7.45;5.03;;;;;;;;;;5071288;28;20487;-64
2021/03/09 09:21:42;;;;;;;7.57;5.15;;;;;;;;;;5071886;28;20040;-63
2021/03/09 09:24:15;;;;;;;7.25;5.25;;;;;;;;;;5069926;28;20060;-62
2021/03/09 09:26:41;;;;;;;7.28;5.15;;;;;;;;;;5065604;28;20094;-62
2021/03/09 09:29:07;;;;;;;8.45;5.03;;;;;;;;;;5072069;28;20049;-62
2021/03/09 09:31:32;;;;;;;8.23;5.25;;;;;;;;;;5071209;28;20037;-61
2021/03/09 09:33:58;;;;;;;7.90;5.65;;;;;;;;;;5071549;28;20048;-62
2021/03/09 09:36:24;;;;;;;8.40;5.57;;;;;;;;;;5070268;28;20055;-62
2021/03/09 09:38:53;;;;;;;7.15;5.30;;;;;;;;;;5064112;28;20570;-62
2021/03/09 09:41:20;;;;;;;7.82;5.30;;;;;;;;;;5070686;28;20187;-62
2021/03/09 09:43:45;;;;;;;7.90;5.50;;;;;;;;;;5055188;28;20080;-62
2021/03/09 09:46:27;;;;;;;8.30;5.50;;;;;;;;;;5070788;28;20527;-62
2021/03/09 09:48:53;;;;;;;8.05;5.63;;;;;;;;;;5071771;28;20146;-62
2021/03/09 09:51:20;;;;;;;6.97;5.35;;;;;;;;;;5070067;28;20597;-62
2021/03/09 09:53:50;;;;;;;8.75;5.60;;;;;;;;;;5072413;28;20052;-62
2021/03/09 09:56:18;;;;;;;7.10;5.25;;;;;;;;;;5070662;28;20045;-62
2021/03/09 09:58:48;;;;;;;7.80;5.38;;;;;;;;;;5071864;28;20052;-62
2021/03/09 10:01:20;;;;;;;7.43;5.10;;;;;;;;;;5071442;28;20052;-62
2021/03/09 10:03:52;;;;;;;7.45;5.15;;;;;;;;;;5073199;28;20958;-63
2021/03/09 10:06:17;;;;;;;;;;;;;;;;;;5073723;28;20092;-62
2021/03/09 10:08:44;;;;;;;8.98;5.10;;;;;;;;;;5073463;28;19920;-63
2021/03/09 10:11:10;;;;;;;8.25;5.25;;;;;;;;;;5072607;28;20144;-62
2021/03/09 10:13:35;;;;;;;8.20;5.25;;;;;;;;;;5064711;28;20047;-63
2021/03/09 10:16:00;;;;;;;8.45;5.45;;;;;;;;;;5072629;28;20432;-63
2021/03/09 10:18:36;;;;;;;8.70;5.55;;;;;;;;;;5071889;28;20055;-63
2021/03/09 10:21:08;;;;;;;7.53;5.25;;;;;;;;;;5070724;28;20128;-62
2021/03/09 10:23:57;;;;;;;8.02;5.40;;;;;;;;;;5069899;28;20055;-63
2021/03/09 10:26:34;;;;;;;8.32;5.40;;;;;;;;;;5066137;28;20088;-63
2021/03/09 10:29:02;;;;;;;7.78;5.70;;;;;;;;;;5041030;28;20597;-63
2021/03/09 10:31:50;;;;;;;7.93;5.38;;;;;;;;;;5080224;28;20107;-63
2021/03/09 10:34:17;;;;;;;8.25;5.05;;;;;;;;;;5072202;28;20120;-62
2021/03/09 10:36:53;;;;;;;11.05;5.00;;;;;;;;;;5070705;28;20103;-63
2021/03/09 10:39:19;;;;;;;9.13;5.25;;;;;;;;;;5072864;28;20052;-63
2021/03/09 10:41:44;;;;;;;7.47;5.13;;;;;;;;;;5074975;28;20045;-63
2021/03/09 10:44:35;;;;;;;7.80;4.82;;;;;;;;;;5073452;28;20045;-63
2021/03/09 10:47:03;;;;;;;9.65;5.25;;;;;;;;;;5074805;28;20051;-62
2021/03/09 10:49:29;;;;;;;6.60;4.78;;;;;;;;;;5056577;28;20041;-62
2021/03/09 10:52:02;;;;;;;10.73;7.65;;;;;;;;;;5084182;28;20068;-63
2021/03/09 10:54:27;;;;;;;7.57;5.18;;;;;;;;;;5071995;28;20052;-63
2021/03/09 10:56:53;;;;;;;7.90;4.82;;;;;;;;;;5073713;28;20413;-62
2021/03/09 10:59:18;;;;;;;7.22;4.93;;;;;;;;;;5072399;28;20833;-62
2021/03/09 11:01:44;;;;;;;7.32;4.82;;;;;;;;;;5074525;28;20053;-62
2021/03/09 11:04:09;;;;;;;10.15;6.85;;;;;;;;;;5073546;28;20671;-62
2021/03/09 11:06:35;;;;;;;10.05;7.20;;;;;;;;;;5083389;28;20044;-62
2021/03/09 11:09:00;;;;;;;10.40;6.90;;;;;;;;;;5059758;28;20044;-62
2021/03/09 11:11:26;;;;;;;10.30;7.22;;;;;;;;;;5074422;28;20877;-63
2021/03/09 11:13:51;;;;;;;9.77;7.05;;;;;;;;;;5085186;28;20044;-62
2021/03/09 11:16:17;;;;;;;9.77;6.78;;;;;;;;;;5073770;28;20044;-63
2021/03/09 11:18:43;;;;;;;8.75;6.28;;;;;;;;;;5075040;28;20056;-63
2021/03/09 11:21:09;;;;;;;10.27;6.75;;;;;;;;;;5073659;28;20045;-62
2021/03/09 11:23:35;;;;;;;9.18;6.55;;;;;;;;;;5073688;28;20079;-62
2021/03/09 11:26:01;;;;;;;9.52;6.28;;;;;;;;;;5074578;28;20051;-63
2021/03/09 11:28:26;;;;;;;9.40;6.85;;;;;;;;;;5063756;28;20053;-63
2021/03/09 11:30:51;;;;;;;9.23;6.07;;;;;;;;;;5075003;28;20056;-63
2021/03/09 11:33:17;;;;;;;9.55;6.47;;;;;;;;;;5073765;28;20047;-63
2021/03/09 11:35:42;;;;;;;9.38;6.72;;;;;;;;;;5075518;28;20549;-63
2021/03/09 11:38:09;;;;;;;9.75;6.68;;;;;;;;;;5073609;28;20053;-62
2021/03/09 11:40:35;;;;;;;7.45;5.10;;;;;;;;;;5075157;28;20132;-63
2021/03/09 11:43:00;;;;;;;7.78;5.10;;;;;;;;;;5074123;28;20047;-63
2021/03/09 11:45:26;;;;;;;8.10;5.30;;;;;;;;;;5072372;28;20048;-63
2021/03/09 11:47:51;;;;;;;9.30;6.85;;;;;;;;;;5075671;28;20091;-62
2021/03/09 11:50:17;;;;;;;9.32;5.10;;;;;;;;;;5073355;28;20139;-62
2021/03/09 11:52:42;;;;;;;6.95;5.20;;;;;;;;;;5074288;28;20517;-62
2021/03/09 11:55:08;;;;;;;8.00;5.38;;;;;;;;;;5072575;28;20045;-63
2021/03/09 11:57:34;;;;;;;8.93;5.35;;;;;;;;;;5073375;28;20064;-62
2021/03/09 11:59:59;;;;;;;10.20;7.82;;;;;;;;;;5073846;28;20509;-62
2021/03/09 12:02:25;;;;;;;9.18;6.60;;;;;;;;;;5073128;28;20043;-62
2021/03/09 12:04:51;;;;;;;8.15;5.35;;;;;;;;;;5075958;28;20456;-62
2021/03/09 12:07:18;;;;;;;10.05;6.40;;;;;;;;;;5074919;28;20052;-63
2021/03/09 12:09:43;;;;;;;8.80;6.40;;;;;;;;;;5074935;28;20497;-62
2021/03/09 12:12:09;;;;;;;8.23;6.05;;;;;;;;;;5072976;28;20039;-62
2021/03/09 12:14:35;;;;;;;11.23;6.35;;;;;;;;;;5074655;28;20048;-63
2021/03/09 12:17:00;;;;;;;8.00;5.78;;;;;;;;;;5073054;28;20048;-62
2021/03/09 12:19:26;;;;;;;8.98;6.10;;;;;;;;;;5071292;28;20044;-63
2021/03/09 12:21:51;;;;;;;9.50;6.43;;;;;;;;;;5074308;28;20106;-64
2021/03/09 12:24:17;;;;;;;8.82;5.85;;;;;;;;;;5073101;28;20105;-63
2021/03/09 12:26:42;;;;;;;10.15;6.82;;;;;;;;;;5083181;28;20040;-64
2021/03/09 12:29:08;;;;;;;8.35;5.60;;;;;;;;;;5074077;28;20048;-63
2021/03/09 12:31:33;;;;;;;8.23;5.63;;;;;;;;;;5072319;28;20041;-63
2021/03/09 12:33:59;;;;;;;7.88;5.65;;;;;;;;;;5073081;28;20071;-63
2021/03/09 12:36:24;;;;;;;10.32;6.93;;;;;;;;;;5070403;28;20051;-63
2021/03/09 12:38:50;;;;;;;7.20;4.82;;;;;;;;;;5073872;28;20044;-64
2021/03/09 12:41:16;;;;;;;7.13;4.97;;;;;;;;;;5073189;28;20067;-62
2021/03/09 12:43:41;;;;;;;7.70;5.47;;;;;;;;;;5072759;28;20048;-64
2021/03/09 12:46:07;;;;;;;9.45;6.45;;;;;;;;;;5070845;28;20122;-64
2021/03/09 12:48:33;;;;;;;8.80;6.00;;;;;;;;;;5072438;28;20044;-63
2021/03/09 12:50:58;;;;;;;7.43;5.10;;;;;;;;;;5072946;28;20051;-64
2021/03/09 12:53:24;;;;;;;9.60;6.40;;;;;;;;;;5071233;28;20036;-63
2021/03/09 12:55:50;;;;;;;9.20;5.80;;;;;;;;;;5083726;28;20080;-63
2021/03/09 12:58:15;;;;;;;8.95;6.13;;;;;;;;;;5072513;28;20557;-64
2021/03/09 13:00:41;;;;;;;8.27;5.60;;;;;;;;;;5074087;28;20049;-64
2021/03/09 13:03:06;;;;;;;7.60;5.15;;;;;;;;;;5072777;28;20041;-64
2021/03/09 13:05:32;;;;;;;7.65;5.07;;;;;;;;;;5073509;28;20106;-64
2021/03/09 13:07:57;;;;;;;8.95;6.15;;;;;;;;;;5072753;28;20462;-64
2021/03/09 13:10:23;;;;;;;9.43;5.70;;;;;;;;;;5073244;28;20061;-63
2021/03/09 13:12:48;;;;;;;8.32;5.60;;;;;;;;;;5074616;28;20040;-63
2021/03/09 13:15:14;;;;;;;8.38;6.03;;;;;;;;;;5074542;28;20094;-62
2021/03/09 13:17:39;;;;;;;8.45;5.63;;;;;;;;;;5074093;28;20111;-63
2021/03/09 13:20:10;;;;;;;10.23;8.05;;;;;;;;;;5074625;28;20041;-62
2021/03/09 13:22:35;;;;;;;7.85;5.35;;;;;;;;;;5072649;28;20134;-62
2021/03/09 13:25:02;;;;;;;8.55;6.15;;;;;;;;;;5072232;28;20117;-62
2021/03/09 13:27:28;;;;;;;10.10;7.22;;;;;;;;;;5065470;28;20037;-62
2021/03/09 13:29:54;;;;;;;8.27;5.93;;;;;;;;;;5072862;28;20049;-62
2021/03/09 13:32:19;;;;;;;11.48;7.32;;;;;;;;;;5072185;28;20045;-62
2021/03/09 13:34:45;;;;;;;11.95;8.13;;;;;;;;;;5073218;28;20048;-62
2021/03/09 13:37:11;;;;;;;8.25;5.75;;;;;;;;;;5072147;28;20045;-62
2021/03/09 13:39:36;;;;;;;11.02;8.10;;;;;;;;;;5071403;28;20045;-62
2021/03/09 13:42:02;;;;;;;11.23;8.75;;;;;;;;;;5071725;28;20041;-62
2021/03/09 13:44:27;;;;;;;9.80;6.50;;;;;;;;;;5071504;28;20028;-62
2021/03/09 13:46:53;;;;;;;9.80;6.43;;;;;;;;;;5073304;28;20466;-62
2021/03/09 13:49:19;;;;;;;8.68;5.70;;;;;;;;;;5071491;28;20049;-62
2021/03/09 13:51:44;;;;;;;9.80;7.00;;;;;;;;;;5071376;28;20132;-63
2021/03/09 13:54:10;;;;;;;12.65;8.60;;;;;;;;;;5070699;28;20841;-63
2021/03/09 13:56:35;;;;;;;10.65;8.27;;;;;;;;;;5072116;28;20379;-63
2021/03/09 13:59:01;;;;;;;11.60;8.93;;;;;;;;;;5057268;28;20044;-63
2021/03/09 14:01:26;;;;;;;8.45;5.80;;;;;;;;;;5071277;28;20053;-63
2021/03/09 14:03:52;;;;;;;9.38;6.15;;;;;;;;;;5072001;28;20095;-63
2021/03/09 14:06:17;;;;;;;7.43;5.10;;;;;;;;;;5071295;28;20056;-63
2021/03/09 14:08:43;;;;;;;8.50;5.40;;;;;;;;;;5057976;28;20041;-63
2021/03/09 14:11:09;;;;;;;8.70;5.97;;;;;;;;;;5072086;28;20055;-63
2021/03/09 14:13:34;;;;;;;8.98;5.80;;;;;;;;;;5072295;28;20037;-63
2021/03/09 14:16:00;;;;;;;8.23;5.50;;;;;;;;;;5071307;28;20148;-63
2021/03/09 14:18:25;;;;;;;8.57;6.03;;;;;;;;;;5072212;28;20049;-63
2021/03/09 14:20:51;;;;;;;11.77;8.65;;;;;;;;;;5075514;28;20044;-62
2021/03/09 14:23:16;;;;;;;9.38;6.00;;;;;;;;;;5073689;28;20383;-64
2021/03/09 14:25:42;;;;;;;9.25;6.25;;;;;;;;;;5075545;28;20045;-63
2021/03/09 14:28:07;;;;;;;9.43;6.43;;;;;;;;;;5073910;28;20051;-63
2021/03/09 14:30:34;;;;;;;8.98;5.78;;;;;;;;;;5074746;28;20049;-63
2021/03/09 14:33:00;;;;;;;12.43;8.32;;;;;;;;;;5076330;28;20526;-64
2021/03/09 14:35:25;;;;;;;11.15;8.85;;;;;;;;;;5073715;28;20049;-63
2021/03/09 14:37:52;;;;;;;12.20;8.98;;;;;;;;;;5073208;28;20041;-63
2021/03/09 14:40:21;;;;;;;10.82;8.35;;;;;;;;;;5074735;28;20041;-63
2021/03/09 14:42:46;;;;;;;11.40;8.23;;;;;;;;;;5083609;28;20045;-63